sensor_id;sensor_type;location;lat;lon;timestamp;P1;durP1;ratioP1;P2;durP2;ratioP2
79128;SDS011;68529;43.286;23.360;2023-09-18T00:01:36;12.13;;;10.82;;
79128;SDS011;68529;43.286;23.360;2023-09-18T00:04:04;11.55;;;10.43;;
79128;SDS011;68529;43.286;23.360;2023-09-18T00:06:32;13.00;;;10.67;;
79128;SDS011;68529;43.286;23.360;2023-09-18T00:08:58;11.88;;;10.77;;
79128;SDS011;68529;43.286;23.360;2023-09-18T00:11:23;12.23;;;11.03;;
79128;SDS011;68529;43.286;23.360;2023-09-18T00:13:49;12.15;;;11.00;;
79128;SDS011;68529;43.286;23.360;2023-09-18T00:16:14;12.57;;;11.48;;
79128;SDS011;68529;43.286;23.360;2023-09-18T00:18:40;12.20;;;11.10;;
79128;SDS011;68529;43.286;23.360;2023-09-18T00:21:06;11.45;;;10.45;;
79128;SDS011;68529;43.286;23.360;2023-09-18T00:23:31;12.32;;;10.35;;
79128;SDS011;68529;43.286;23.360;2023-09-18T00:25:57;12.02;;;10.93;;
79128;SDS011;68529;43.286;23.360;2023-09-18T00:28:22;12.07;;;10.87;;
79128;SDS011;68529;43.286;23.360;2023-09-18T00:30:48;11.20;;;10.15;;
79128;SDS011;68529;43.286;23.360;2023-09-18T00:33:14;12.43;;;11.23;;
79128;SDS011;68529;43.286;23.360;2023-09-18T00:35:40;11.50;;;10.50;;
79128;SDS011;68529;43.286;23.360;2023-09-18T00:38:09;11.93;;;10.97;;
79128;SDS011;68529;43.286;23.360;2023-09-18T00:40:35;11.93;;;10.87;;
79128;SDS011;68529;43.286;23.360;2023-09-18T00:43:00;11.87;;;10.67;;
79128;SDS011;68529;43.286;23.360;2023-09-18T00:45:25;11.63;;;10.63;;
79128;SDS011;68529;43.286;23.360;2023-09-18T00:47:51;10.83;;;9.80;;
79128;SDS011;68529;43.286;23.360;2023-09-18T00:50:17;11.87;;;10.67;;
79128;SDS011;68529;43.286;23.360;2023-09-18T00:52:42;11.90;;;10.80;;
79128;SDS011;68529;43.286;23.360;2023-09-18T00:55:08;11.80;;;10.80;;
79128;SDS011;68529;43.286;23.360;2023-09-18T00:57:34;11.70;;;10.77;;
79128;SDS011;68529;43.286;23.360;2023-09-18T01:00:00;11.67;;;10.73;;
79128;SDS011;68529;43.286;23.360;2023-09-18T01:02:26;13.40;;;11.05;;
79128;SDS011;68529;43.286;23.360;2023-09-18T01:04:51;11.67;;;10.53;;
79128;SDS011;68529;43.286;23.360;2023-09-18T01:07:17;11.30;;;10.27;;
79128;SDS011;68529;43.286;23.360;2023-09-18T01:09:43;11.53;;;10.33;;
79128;SDS011;68529;43.286;23.360;2023-09-18T01:12:23;11.83;;;10.50;;
79128;SDS011;68529;43.286;23.360;2023-09-18T01:15:11;12.47;;;11.20;;
79128;SDS011;68529;43.286;23.360;2023-09-18T01:17:42;12.00;;;10.80;;
79128;SDS011;68529;43.286;23.360;2023-09-18T01:20:09;12.37;;;10.73;;
79128;SDS011;68529;43.286;23.360;2023-09-18T01:22:35;11.57;;;10.57;;
79128;SDS011;68529;43.286;23.360;2023-09-18T01:25:00;12.68;;;11.43;;
79128;SDS011;68529;43.286;23.360;2023-09-18T01:27:27;12.60;;;11.50;;
79128;SDS011;68529;43.286;23.360;2023-09-18T01:29:52;11.38;;;10.10;;
79128;SDS011;68529;43.286;23.360;2023-09-18T01:32:18;11.88;;;10.70;;
79128;SDS011;68529;43.286;23.360;2023-09-18T01:34:45;11.30;;;10.30;;
79128;SDS011;68529;43.286;23.360;2023-09-18T01:37:12;11.23;;;10.23;;
79128;SDS011;68529;43.286;23.360;2023-09-18T01:39:40;11.82;;;9.93;;
79128;SDS011;68529;43.286;23.360;2023-09-18T01:42:06;11.20;;;10.10;;
79128;SDS011;68529;43.286;23.360;2023-09-18T01:44:34;11.77;;;10.57;;
79128;SDS011;68529;43.286;23.360;2023-09-18T01:47:02;11.75;;;10.60;;
79128;SDS011;68529;43.286;23.360;2023-09-18T01:49:33;11.63;;;10.52;;
79128;SDS011;68529;43.286;23.360;2023-09-18T01:52:04;10.90;;;9.93;;
79128;SDS011;68529;43.286;23.360;2023-09-18T01:54:30;10.68;;;9.63;;
79128;SDS011;68529;43.286;23.360;2023-09-18T01:56:57;11.32;;;10.32;;
79128;SDS011;68529;43.286;23.360;2023-09-18T01:59:23;11.98;;;10.95;;
79128;SDS011;68529;43.286;23.360;2023-09-18T02:01:50;13.18;;;10.50;;
79128;SDS011;68529;43.286;23.360;2023-09-18T02:04:16;11.88;;;10.70;;
79128;SDS011;68529;43.286;23.360;2023-09-18T02:06:42;10.90;;;9.90;;
79128;SDS011;68529;43.286;23.360;2023-09-18T02:09:08;12.17;;;10.97;;
79128;SDS011;68529;43.286;23.360;2023-09-18T02:11:40;12.05;;;10.13;;
79128;SDS011;68529;43.286;23.360;2023-09-18T02:14:07;11.27;;;10.32;;
79128;SDS011;68529;43.286;23.360;2023-09-18T02:16:34;11.83;;;10.77;;
79128;SDS011;68529;43.286;23.360;2023-09-18T02:19:01;10.93;;;9.90;;
79128;SDS011;68529;43.286;23.360;2023-09-18T02:21:27;10.95;;;10.00;;
79128;SDS011;68529;43.286;23.360;2023-09-18T02:23:53;11.95;;;10.85;;
79128;SDS011;68529;43.286;23.360;2023-09-18T02:26:19;11.20;;;10.15;;
79128;SDS011;68529;43.286;23.360;2023-09-18T02:28:45;12.10;;;10.75;;
79128;SDS011;68529;43.286;23.360;2023-09-18T02:31:10;11.43;;;10.25;;
79128;SDS011;68529;43.286;23.360;2023-09-18T02:33:36;13.25;;;11.40;;
79128;SDS011;68529;43.286;23.360;2023-09-18T02:36:02;12.93;;;10.98;;
79128;SDS011;68529;43.286;23.360;2023-09-18T02:38:28;11.07;;;10.07;;
79128;SDS011;68529;43.286;23.360;2023-09-18T02:40:55;12.95;;;11.75;;
79128;SDS011;68529;43.286;23.360;2023-09-18T02:43:21;11.68;;;10.48;;
79128;SDS011;68529;43.286;23.360;2023-09-18T02:45:47;13.70;;;11.87;;
79128;SDS011;68529;43.286;23.360;2023-09-18T02:48:12;13.90;;;10.95;;
79128;SDS011;68529;43.286;23.360;2023-09-18T02:50:38;11.73;;;10.53;;
79128;SDS011;68529;43.286;23.360;2023-09-18T02:53:05;12.07;;;10.97;;
79128;SDS011;68529;43.286;23.360;2023-09-18T02:55:31;12.07;;;10.83;;
79128;SDS011;68529;43.286;23.360;2023-09-18T02:57:57;18.47;;;11.20;;
79128;SDS011;68529;43.286;23.360;2023-09-18T03:00:22;11.93;;;11.00;;
79128;SDS011;68529;43.286;23.360;2023-09-18T03:02:47;11.02;;;10.13;;
79128;SDS011;68529;43.286;23.360;2023-09-18T03:05:13;11.85;;;10.75;;
79128;SDS011;68529;43.286;23.360;2023-09-18T03:07:38;13.53;;;10.57;;
79128;SDS011;68529;43.286;23.360;2023-09-18T03:10:03;12.27;;;11.07;;
79128;SDS011;68529;43.286;23.360;2023-09-18T03:12:30;12.47;;;10.20;;
79128;SDS011;68529;43.286;23.360;2023-09-18T03:14:56;13.18;;;11.30;;
79128;SDS011;68529;43.286;23.360;2023-09-18T03:17:22;11.63;;;10.40;;
79128;SDS011;68529;43.286;23.360;2023-09-18T03:19:50;11.53;;;10.40;;
79128;SDS011;68529;43.286;23.360;2023-09-18T03:22:15;12.33;;;10.17;;
79128;SDS011;68529;43.286;23.360;2023-09-18T03:24:41;11.47;;;10.47;;
79128;SDS011;68529;43.286;23.360;2023-09-18T03:27:06;10.63;;;9.53;;
79128;SDS011;68529;43.286;23.360;2023-09-18T03:29:32;11.10;;;9.97;;
79128;SDS011;68529;43.286;23.360;2023-09-18T03:31:57;10.67;;;9.67;;
79128;SDS011;68529;43.286;23.360;2023-09-18T03:34:24;10.77;;;9.87;;
79128;SDS011;68529;43.286;23.360;2023-09-18T03:36:52;10.97;;;10.00;;
79128;SDS011;68529;43.286;23.360;2023-09-18T03:39:18;10.90;;;9.93;;
79128;SDS011;68529;43.286;23.360;2023-09-18T03:41:44;10.83;;;9.67;;
79128;SDS011;68529;43.286;23.360;2023-09-18T03:44:09;12.37;;;9.83;;
79128;SDS011;68529;43.286;23.360;2023-09-18T03:46:35;11.10;;;10.10;;
79128;SDS011;68529;43.286;23.360;2023-09-18T03:49:01;10.87;;;9.80;;
79128;SDS011;68529;43.286;23.360;2023-09-18T03:51:27;12.03;;;9.93;;
79128;SDS011;68529;43.286;23.360;2023-09-18T03:53:56;11.27;;;10.27;;
79128;SDS011;68529;43.286;23.360;2023-09-18T03:56:21;17.17;;;10.40;;
79128;SDS011;68529;43.286;23.360;2023-09-18T03:58:47;10.60;;;9.60;;
79128;SDS011;68529;43.286;23.360;2023-09-18T04:01:15;11.20;;;10.13;;
79128;SDS011;68529;43.286;23.360;2023-09-18T04:03:41;10.63;;;9.37;;
79128;SDS011;68529;43.286;23.360;2023-09-18T04:06:06;11.10;;;10.03;;
79128;SDS011;68529;43.286;23.360;2023-09-18T04:08:32;10.73;;;9.83;;
79128;SDS011;68529;43.286;23.360;2023-09-18T04:10:57;11.60;;;10.40;;
79128;SDS011;68529;43.286;23.360;2023-09-18T04:13:23;10.90;;;9.80;;
79128;SDS011;68529;43.286;23.360;2023-09-18T04:15:49;10.13;;;9.23;;
79128;SDS011;68529;43.286;23.360;2023-09-18T04:18:14;11.03;;;9.93;;
79128;SDS011;68529;43.286;23.360;2023-09-18T04:20:39;10.47;;;9.50;;
79128;SDS011;68529;43.286;23.360;2023-09-18T04:25:50;10.93;;;9.93;;
79128;SDS011;68529;43.286;23.360;2023-09-18T04:28:17;11.70;;;10.50;;
79128;SDS011;68529;43.286;23.360;2023-09-18T04:30:44;11.83;;;10.57;;
79128;SDS011;68529;43.286;23.360;2023-09-18T04:33:09;11.13;;;10.03;;
79128;SDS011;68529;43.286;23.360;2023-09-18T04:35:36;11.37;;;9.77;;
79128;SDS011;68529;43.286;23.360;2023-09-18T04:38:04;10.00;;;9.10;;
79128;SDS011;68529;43.286;23.360;2023-09-18T04:40:31;10.60;;;9.60;;
79128;SDS011;68529;43.286;23.360;2023-09-18T04:43:00;11.77;;;10.50;;
79128;SDS011;68529;43.286;23.360;2023-09-18T04:45:26;10.80;;;9.87;;
79128;SDS011;68529;43.286;23.360;2023-09-18T04:47:52;11.50;;;10.40;;
79128;SDS011;68529;43.286;23.360;2023-09-18T04:50:19;11.07;;;9.97;;
79128;SDS011;68529;43.286;23.360;2023-09-18T04:52:44;10.97;;;9.80;;
79128;SDS011;68529;43.286;23.360;2023-09-18T04:55:10;11.17;;;10.07;;
79128;SDS011;68529;43.286;23.360;2023-09-18T04:57:36;11.07;;;10.10;;
79128;SDS011;68529;43.286;23.360;2023-09-18T05:00:02;10.57;;;9.27;;
79128;SDS011;68529;43.286;23.360;2023-09-18T05:02:28;10.93;;;9.93;;
79128;SDS011;68529;43.286;23.360;2023-09-18T05:04:55;10.13;;;9.23;;
79128;SDS011;68529;43.286;23.360;2023-09-18T05:07:21;9.93;;;8.67;;
79128;SDS011;68529;43.286;23.360;2023-09-18T05:09:46;11.05;;;10.02;;
79128;SDS011;68529;43.286;23.360;2023-09-18T05:12:12;10.93;;;9.90;;
79128;SDS011;68529;43.286;23.360;2023-09-18T05:14:40;10.40;;;9.50;;
79128;SDS011;68529;43.286;23.360;2023-09-18T05:17:08;10.63;;;9.65;;
79128;SDS011;68529;43.286;23.360;2023-09-18T05:19:36;10.27;;;9.37;;
79128;SDS011;68529;43.286;23.360;2023-09-18T05:22:01;12.40;;;11.13;;
79128;SDS011;68529;43.286;23.360;2023-09-18T05:24:28;11.80;;;10.53;;
79128;SDS011;68529;43.286;23.360;2023-09-18T05:26:54;12.07;;;10.23;;
79128;SDS011;68529;43.286;23.360;2023-09-18T05:29:19;12.43;;;11.20;;
79128;SDS011;68529;43.286;23.360;2023-09-18T05:31:48;14.10;;;12.93;;
79128;SDS011;68529;43.286;23.360;2023-09-18T05:34:36;10.95;;;10.00;;
79128;SDS011;68529;43.286;23.360;2023-09-18T05:37:02;11.95;;;10.75;;
79128;SDS011;68529;43.286;23.360;2023-09-18T05:39:28;11.88;;;10.77;;
79128;SDS011;68529;43.286;23.360;2023-09-18T05:41:53;12.60;;;11.30;;
79128;SDS011;68529;43.286;23.360;2023-09-18T05:44:19;12.55;;;11.48;;
79128;SDS011;68529;43.286;23.360;2023-09-18T05:46:44;11.77;;;10.75;;
79128;SDS011;68529;43.286;23.360;2023-09-18T05:49:10;12.10;;;10.95;;
79128;SDS011;68529;43.286;23.360;2023-09-18T05:51:35;12.60;;;11.32;;
79128;SDS011;68529;43.286;23.360;2023-09-18T05:54:01;13.27;;;11.88;;
79128;SDS011;68529;43.286;23.360;2023-09-18T05:56:27;12.43;;;11.13;;
79128;SDS011;68529;43.286;23.360;2023-09-18T05:58:52;63.97;;;15.43;;
79128;SDS011;68529;43.286;23.360;2023-09-18T06:01:17;12.43;;;10.80;;
79128;SDS011;68529;43.286;23.360;2023-09-18T06:03:43;11.80;;;10.70;;
79128;SDS011;68529;43.286;23.360;2023-09-18T06:06:08;12.75;;;11.40;;
79128;SDS011;68529;43.286;23.360;2023-09-18T06:08:34;13.20;;;11.98;;
79128;SDS011;68529;43.286;23.360;2023-09-18T06:10:59;13.70;;;12.32;;
79128;SDS011;68529;43.286;23.360;2023-09-18T06:13:24;12.60;;;11.32;;
79128;SDS011;68529;43.286;23.360;2023-09-18T06:15:51;13.90;;;12.27;;
79128;SDS011;68529;43.286;23.360;2023-09-18T06:18:20;13.73;;;12.48;;
79128;SDS011;68529;43.286;23.360;2023-09-18T06:20:47;14.35;;;12.60;;
79128;SDS011;68529;43.286;23.360;2023-09-18T06:23:13;14.18;;;12.70;;
79128;SDS011;68529;43.286;23.360;2023-09-18T06:25:41;14.55;;;13.23;;
79128;SDS011;68529;43.286;23.360;2023-09-18T06:28:07;14.80;;;13.43;;
79128;SDS011;68529;43.286;23.360;2023-09-18T06:30:32;15.02;;;13.52;;
79128;SDS011;68529;43.286;23.360;2023-09-18T06:32:59;16.45;;;13.60;;
79128;SDS011;68529;43.286;23.360;2023-09-18T06:35:25;14.05;;;12.75;;
79128;SDS011;68529;43.286;23.360;2023-09-18T11:50:58;11.75;;;10.38;;
79128;SDS011;68529;43.286;23.360;2023-09-18T11:53:26;11.52;;;10.45;;
79128;SDS011;68529;43.286;23.360;2023-09-18T11:55:52;12.40;;;10.68;;
79128;SDS011;68529;43.286;23.360;2023-09-18T11:58:18;12.52;;;10.13;;
79128;SDS011;68529;43.286;23.360;2023-09-18T12:00:48;11.95;;;10.45;;
79128;SDS011;68529;43.286;23.360;2023-09-18T12:03:21;11.77;;;10.63;;
79128;SDS011;68529;43.286;23.360;2023-09-18T12:05:56;11.63;;;10.50;;
79128;SDS011;68529;43.286;23.360;2023-09-18T12:08:23;13.05;;;9.57;;
79128;SDS011;68529;43.286;23.360;2023-09-18T12:13:57;9.57;;;8.63;;
79128;SDS011;68529;43.286;23.360;2023-09-18T12:16:23;9.18;;;8.30;;
79128;SDS011;68529;43.286;23.360;2023-09-18T12:18:49;11.13;;;9.15;;
79128;SDS011;68529;43.286;23.360;2023-09-18T12:21:15;9.18;;;8.23;;
79128;SDS011;68529;43.286;23.360;2023-09-18T12:23:44;9.60;;;8.43;;
79128;SDS011;68529;43.286;23.360;2023-09-18T12:26:15;9.40;;;8.50;;
79128;SDS011;68529;43.286;23.360;2023-09-18T12:28:42;10.68;;;8.43;;
79128;SDS011;68529;43.286;23.360;2023-09-18T12:31:11;9.27;;;8.55;;
79128;SDS011;68529;43.286;23.360;2023-09-18T12:33:38;11.52;;;9.15;;
79128;SDS011;68529;43.286;23.360;2023-09-18T12:36:05;9.30;;;8.48;;
79128;SDS011;68529;43.286;23.360;2023-09-18T12:38:31;9.27;;;8.45;;
79128;SDS011;68529;43.286;23.360;2023-09-18T12:40:57;11.07;;;8.95;;
79128;SDS011;68529;43.286;23.360;2023-09-18T12:43:31;10.00;;;9.00;;
79128;SDS011;68529;43.286;23.360;2023-09-18T12:45:58;9.45;;;8.55;;
79128;SDS011;68529;43.286;23.360;2023-09-18T12:48:24;8.80;;;7.97;;
79128;SDS011;68529;43.286;23.360;2023-09-18T12:50:51;9.35;;;8.07;;
79128;SDS011;68529;43.286;23.360;2023-09-18T12:53:22;10.43;;;8.45;;
79128;SDS011;68529;43.286;23.360;2023-09-18T12:55:48;9.40;;;8.60;;
79128;SDS011;68529;43.286;23.360;2023-09-18T12:58:13;8.98;;;8.00;;
79128;SDS011;68529;43.286;23.360;2023-09-18T13:00:45;8.38;;;7.57;;
79128;SDS011;68529;43.286;23.360;2023-09-18T13:03:12;7.78;;;6.97;;
79128;SDS011;68529;43.286;23.360;2023-09-18T13:05:38;7.80;;;7.15;;
79128;SDS011;68529;43.286;23.360;2023-09-18T13:08:05;10.45;;;7.60;;
79128;SDS011;68529;43.286;23.360;2023-09-18T13:10:43;8.50;;;7.70;;
79128;SDS011;68529;43.286;23.360;2023-09-18T13:13:22;8.10;;;7.32;;
79128;SDS011;68529;43.286;23.360;2023-09-18T13:15:48;8.05;;;7.35;;
79128;SDS011;68529;43.286;23.360;2023-09-18T13:18:14;8.13;;;7.32;;
79128;SDS011;68529;43.286;23.360;2023-09-18T13:20:41;8.27;;;7.50;;
79128;SDS011;68529;43.286;23.360;2023-09-18T13:23:07;9.65;;;7.85;;
79128;SDS011;68529;43.286;23.360;2023-09-18T13:25:33;8.10;;;7.30;;
79128;SDS011;68529;43.286;23.360;2023-09-18T13:28:02;8.98;;;7.10;;
79128;SDS011;68529;43.286;23.360;2023-09-18T13:30:29;8.38;;;7.38;;
79128;SDS011;68529;43.286;23.360;2023-09-18T13:33:09;7.65;;;6.85;;
79128;SDS011;68529;43.286;23.360;2023-09-18T13:35:41;7.90;;;7.10;;
79128;SDS011;68529;43.286;23.360;2023-09-18T13:38:08;8.05;;;7.15;;
79128;SDS011;68529;43.286;23.360;2023-09-18T13:40:54;9.02;;;7.63;;
79128;SDS011;68529;43.286;23.360;2023-09-18T13:43:22;7.50;;;6.97;;
79128;SDS011;68529;43.286;23.360;2023-09-18T13:45:48;7.45;;;6.85;;
79128;SDS011;68529;43.286;23.360;2023-09-18T13:48:16;7.82;;;7.15;;
79128;SDS011;68529;43.286;23.360;2023-09-18T13:50:42;8.07;;;7.28;;
79128;SDS011;68529;43.286;23.360;2023-09-18T13:53:08;8.32;;;6.72;;
79128;SDS011;68529;43.286;23.360;2023-09-18T13:55:33;7.07;;;6.38;;
79128;SDS011;68529;43.286;23.360;2023-09-18T13:57:59;7.50;;;6.80;;
79128;SDS011;68529;43.286;23.360;2023-09-18T14:00:25;7.20;;;6.53;;
79128;SDS011;68529;43.286;23.360;2023-09-18T14:02:51;7.55;;;6.88;;
79128;SDS011;68529;43.286;23.360;2023-09-18T14:05:16;7.68;;;7.00;;
79128;SDS011;68529;43.286;23.360;2023-09-18T14:07:42;7.72;;;7.00;;
79128;SDS011;68529;43.286;23.360;2023-09-18T14:10:07;7.95;;;7.28;;
79128;SDS011;68529;43.286;23.360;2023-09-18T14:12:35;7.47;;;6.70;;
79128;SDS011;68529;43.286;23.360;2023-09-18T14:15:00;8.15;;;6.82;;
79128;SDS011;68529;43.286;23.360;2023-09-18T14:17:26;7.18;;;6.57;;
79128;SDS011;68529;43.286;23.360;2023-09-18T14:19:51;7.40;;;6.78;;
79128;SDS011;68529;43.286;23.360;2023-09-18T14:22:18;7.18;;;6.53;;
79128;SDS011;68529;43.286;23.360;2023-09-18T14:24:44;7.38;;;6.78;;
79128;SDS011;68529;43.286;23.360;2023-09-18T14:27:11;7.20;;;6.60;;
79128;SDS011;68529;43.286;23.360;2023-09-18T14:29:37;6.65;;;6.05;;
79128;SDS011;68529;43.286;23.360;2023-09-18T14:32:03;6.85;;;6.20;;
79128;SDS011;68529;43.286;23.360;2023-09-18T14:34:29;7.72;;;6.13;;
79128;SDS011;68529;43.286;23.360;2023-09-18T14:36:55;6.30;;;5.50;;
79128;SDS011;68529;43.286;23.360;2023-09-18T14:39:21;6.40;;;5.90;;
79128;SDS011;68529;43.286;23.360;2023-09-18T14:41:47;6.20;;;5.55;;
79128;SDS011;68529;43.286;23.360;2023-09-18T14:44:13;6.65;;;5.95;;
79128;SDS011;68529;43.286;23.360;2023-09-18T14:46:38;8.73;;;7.00;;
79128;SDS011;68529;43.286;23.360;2023-09-18T14:49:04;5.93;;;5.35;;
79128;SDS011;68529;43.286;23.360;2023-09-18T14:51:30;6.70;;;5.50;;
79128;SDS011;68529;43.286;23.360;2023-09-18T14:53:57;7.43;;;5.63;;
79128;SDS011;68529;43.286;23.360;2023-09-18T14:56:23;6.13;;;5.53;;
79128;SDS011;68529;43.286;23.360;2023-09-18T14:58:49;6.55;;;5.45;;
79128;SDS011;68529;43.286;23.360;2023-09-18T15:01:16;5.63;;;5.13;;
79128;SDS011;68529;43.286;23.360;2023-09-18T15:03:42;5.57;;;5.07;;
79128;SDS011;68529;43.286;23.360;2023-09-18T15:06:09;6.10;;;5.55;;
79128;SDS011;68529;43.286;23.360;2023-09-18T15:08:35;5.88;;;5.32;;
79128;SDS011;68529;43.286;23.360;2023-09-18T15:11:00;5.97;;;5.38;;
79128;SDS011;68529;43.286;23.360;2023-09-18T15:13:26;5.53;;;5.03;;
79128;SDS011;68529;43.286;23.360;2023-09-18T15:15:51;7.15;;;5.97;;
79128;SDS011;68529;43.286;23.360;2023-09-18T15:18:16;6.75;;;5.60;;
79128;SDS011;68529;43.286;23.360;2023-09-18T15:20:42;6.85;;;6.13;;
79128;SDS011;68529;43.286;23.360;2023-09-18T15:23:07;7.75;;;5.65;;
79128;SDS011;68529;43.286;23.360;2023-09-18T15:25:35;9.18;;;5.72;;
79128;SDS011;68529;43.286;23.360;2023-09-18T15:28:06;6.32;;;5.72;;
79128;SDS011;68529;43.286;23.360;2023-09-18T15:30:32;8.88;;;6.25;;
79128;SDS011;68529;43.286;23.360;2023-09-18T15:32:57;12.27;;;6.10;;
79128;SDS011;68529;43.286;23.360;2023-09-18T15:35:23;7.93;;;5.63;;
79128;SDS011;68529;43.286;23.360;2023-09-18T15:37:49;6.30;;;5.65;;
79128;SDS011;68529;43.286;23.360;2023-09-18T15:40:16;7.88;;;6.13;;
79128;SDS011;68529;43.286;23.360;2023-09-18T15:42:44;6.85;;;6.15;;
79128;SDS011;68529;43.286;23.360;2023-09-18T15:45:10;7.63;;;5.85;;
79128;SDS011;68529;43.286;23.360;2023-09-18T15:47:36;6.88;;;6.20;;
79128;SDS011;68529;43.286;23.360;2023-09-18T15:50:03;9.15;;;6.53;;
79128;SDS011;68529;43.286;23.360;2023-09-18T15:52:30;6.70;;;5.93;;
79128;SDS011;68529;43.286;23.360;2023-09-18T15:54:56;7.03;;;6.43;;
79128;SDS011;68529;43.286;23.360;2023-09-18T15:57:21;8.23;;;7.38;;
79128;SDS011;68529;43.286;23.360;2023-09-18T15:59:46;7.03;;;6.15;;
79128;SDS011;68529;43.286;23.360;2023-09-18T16:02:13;9.25;;;6.45;;
79128;SDS011;68529;43.286;23.360;2023-09-18T16:04:39;8.57;;;6.53;;
79128;SDS011;68529;43.286;23.360;2023-09-18T16:07:04;9.35;;;6.93;;
79128;SDS011;68529;43.286;23.360;2023-09-18T16:09:30;13.48;;;6.88;;
79128;SDS011;68529;43.286;23.360;2023-09-18T16:11:55;7.63;;;6.72;;
79128;SDS011;68529;43.286;23.360;2023-09-18T16:14:21;8.77;;;6.35;;
79128;SDS011;68529;43.286;23.360;2023-09-18T16:16:46;9.35;;;7.38;;
79128;SDS011;68529;43.286;23.360;2023-09-18T16:19:12;7.43;;;6.68;;
79128;SDS011;68529;43.286;23.360;2023-09-18T16:21:37;8.82;;;6.70;;
79128;SDS011;68529;43.286;23.360;2023-09-18T16:24:03;7.28;;;6.63;;
79128;SDS011;68529;43.286;23.360;2023-09-18T16:26:32;8.00;;;7.20;;
79128;SDS011;68529;43.286;23.360;2023-09-18T16:28:58;8.73;;;7.93;;
79128;SDS011;68529;43.286;23.360;2023-09-18T16:31:23;8.55;;;7.85;;
79128;SDS011;68529;43.286;23.360;2023-09-18T16:33:50;8.90;;;8.07;;
79128;SDS011;68529;43.286;23.360;2023-09-18T16:36:16;10.55;;;7.70;;
79128;SDS011;68529;43.286;23.360;2023-09-18T16:38:41;9.30;;;8.38;;
79128;SDS011;68529;43.286;23.360;2023-09-18T16:41:08;10.15;;;9.13;;
79128;SDS011;68529;43.286;23.360;2023-09-18T16:43:34;9.80;;;8.88;;
79128;SDS011;68529;43.286;23.360;2023-09-18T16:46:00;9.40;;;8.50;;
79128;SDS011;68529;43.286;23.360;2023-09-18T16:48:25;9.25;;;8.27;;
79128;SDS011;68529;43.286;23.360;2023-09-18T16:50:50;9.50;;;8.57;;
79128;SDS011;68529;43.286;23.360;2023-09-18T16:53:16;10.85;;;9.20;;
79128;SDS011;68529;43.286;23.360;2023-09-18T16:55:41;11.70;;;10.70;;
79128;SDS011;68529;43.286;23.360;2023-09-18T16:58:07;10.82;;;9.73;;
79128;SDS011;68529;43.286;23.360;2023-09-18T17:00:32;9.98;;;8.95;;
79128;SDS011;68529;43.286;23.360;2023-09-18T17:02:58;11.05;;;10.05;;
79128;SDS011;68529;43.286;23.360;2023-09-18T17:05:23;10.43;;;9.52;;
79128;SDS011;68529;43.286;23.360;2023-09-18T17:07:48;11.07;;;9.98;;
79128;SDS011;68529;43.286;23.360;2023-09-18T17:10:15;12.57;;;10.40;;
79128;SDS011;68529;43.286;23.360;2023-09-18T17:12:40;11.43;;;10.32;;
79128;SDS011;68529;43.286;23.360;2023-09-18T17:15:06;11.27;;;10.18;;
79128;SDS011;68529;43.286;23.360;2023-09-18T17:17:35;11.60;;;10.45;;
79128;SDS011;68529;43.286;23.360;2023-09-18T17:20:00;10.98;;;9.98;;
79128;SDS011;68529;43.286;23.360;2023-09-18T17:22:25;11.38;;;10.35;;
79128;SDS011;68529;43.286;23.360;2023-09-18T17:24:51;11.60;;;10.60;;
79128;SDS011;68529;43.286;23.360;2023-09-18T17:27:16;11.50;;;10.40;;
79128;SDS011;68529;43.286;23.360;2023-09-18T17:29:42;10.88;;;10.05;;
79128;SDS011;68529;43.286;23.360;2023-09-18T17:32:07;12.05;;;10.85;;
79128;SDS011;68529;43.286;23.360;2023-09-18T17:34:32;12.25;;;10.68;;
79128;SDS011;68529;43.286;23.360;2023-09-18T17:36:58;11.48;;;10.32;;
79128;SDS011;68529;43.286;23.360;2023-09-18T17:39:23;12.18;;;10.90;;
79128;SDS011;68529;43.286;23.360;2023-09-18T17:41:49;11.68;;;10.48;;
79128;SDS011;68529;43.286;23.360;2023-09-18T17:44:15;11.50;;;10.60;;
79128;SDS011;68529;43.286;23.360;2023-09-18T17:46:44;12.25;;;11.05;;
79128;SDS011;68529;43.286;23.360;2023-09-18T17:49:10;11.18;;;10.07;;
79128;SDS011;68529;43.286;23.360;2023-09-18T17:51:37;12.82;;;10.82;;
79128;SDS011;68529;43.286;23.360;2023-09-18T17:54:03;11.45;;;10.35;;
79128;SDS011;68529;43.286;23.360;2023-09-18T17:56:30;12.45;;;10.52;;
79128;SDS011;68529;43.286;23.360;2023-09-18T17:58:55;12.57;;;11.32;;
79128;SDS011;68529;43.286;23.360;2023-09-18T18:01:21;12.50;;;11.10;;
79128;SDS011;68529;43.286;23.360;2023-09-18T18:03:46;12.25;;;10.77;;
79128;SDS011;68529;43.286;23.360;2023-09-18T18:06:13;12.38;;;11.27;;
79128;SDS011;68529;43.286;23.360;2023-09-18T18:08:39;11.52;;;9.88;;
79128;SDS011;68529;43.286;23.360;2023-09-18T18:11:05;13.60;;;9.50;;
79128;SDS011;68529;43.286;23.360;2023-09-18T18:13:30;11.27;;;10.15;;
79128;SDS011;68529;43.286;23.360;2023-09-18T18:15:56;10.52;;;9.52;;
79128;SDS011;68529;43.286;23.360;2023-09-18T18:18:22;10.27;;;9.27;;
79128;SDS011;68529;43.286;23.360;2023-09-18T18:20:47;10.98;;;9.98;;
79128;SDS011;68529;43.286;23.360;2023-09-18T18:23:12;10.40;;;9.23;;
79128;SDS011;68529;43.286;23.360;2023-09-18T18:25:38;9.73;;;8.88;;
79128;SDS011;68529;43.286;23.360;2023-09-18T18:28:04;10.85;;;9.82;;
79128;SDS011;68529;43.286;23.360;2023-09-18T18:30:30;11.38;;;10.25;;
79128;SDS011;68529;43.286;23.360;2023-09-18T18:32:55;11.30;;;10.18;;
79128;SDS011;68529;43.286;23.360;2023-09-18T18:35:21;11.65;;;10.32;;
79128;SDS011;68529;43.286;23.360;2023-09-18T18:37:50;10.60;;;9.60;;
79128;SDS011;68529;43.286;23.360;2023-09-18T18:40:17;10.70;;;9.70;;
79128;SDS011;68529;43.286;23.360;2023-09-18T18:42:44;11.95;;;9.60;;
79128;SDS011;68529;43.286;23.360;2023-09-18T18:45:12;11.95;;;10.77;;
79128;SDS011;68529;43.286;23.360;2023-09-18T18:47:38;11.10;;;9.98;;
79128;SDS011;68529;43.286;23.360;2023-09-18T18:50:03;10.82;;;9.88;;
79128;SDS011;68529;43.286;23.360;2023-09-18T18:52:30;12.60;;;10.68;;
79128;SDS011;68529;43.286;23.360;2023-09-18T18:54:56;10.93;;;9.85;;
79128;SDS011;68529;43.286;23.360;2023-09-18T18:57:22;11.57;;;10.40;;
79128;SDS011;68529;43.286;23.360;2023-09-18T18:59:49;12.13;;;10.43;;
79128;SDS011;68529;43.286;23.360;2023-09-18T19:02:15;11.00;;;9.95;;
79128;SDS011;68529;43.286;23.360;2023-09-18T19:04:40;13.57;;;10.40;;
79128;SDS011;68529;43.286;23.360;2023-09-18T19:07:06;10.63;;;9.63;;
79128;SDS011;68529;43.286;23.360;2023-09-18T19:09:32;10.82;;;9.93;;
79128;SDS011;68529;43.286;23.360;2023-09-18T19:11:59;10.50;;;9.50;;
79128;SDS011;68529;43.286;23.360;2023-09-18T19:14:24;11.55;;;10.45;;
79128;SDS011;68529;43.286;23.360;2023-09-18T19:16:51;11.10;;;10.10;;
79128;SDS011;68529;43.286;23.360;2023-09-18T19:19:16;11.25;;;10.25;;
79128;SDS011;68529;43.286;23.360;2023-09-18T19:21:42;12.50;;;9.93;;
79128;SDS011;68529;43.286;23.360;2023-09-18T19:24:07;12.13;;;10.32;;
79128;SDS011;68529;43.286;23.360;2023-09-18T19:26:32;10.95;;;10.02;;
79128;SDS011;68529;43.286;23.360;2023-09-18T19:28:58;10.77;;;9.88;;
79128;SDS011;68529;43.286;23.360;2023-09-18T19:31:24;10.98;;;10.02;;
79128;SDS011;68529;43.286;23.360;2023-09-18T19:33:49;10.93;;;9.90;;